Westfield, NC (27053)

5:02 PM EST on January 27, 2015 (GMT -0500)
Hanging Rock State Park Visitor Center | Change Station
CLOSE
Current Station
Personal Weather Station
Location: Danbury, NC
Elevation: 1683 ft
Nearby Weather Stations

Elev 1683 ft 36.40 °N, 80.27 °W | Updated 10 minutes ago

Clear
Clear
38.7 °F
Feels Like 34 °F
N
6.8
Wind Variable Wind from NNW

Today
High -- | Low -- °F
--% Chance of Precip.
Yesterday
High -- | Low -- °F
Precip. -- in
7:26 AM 5:41 PM
First Quarter, 58% visible
Pressure 29.87 in
Visibility 10.0 miles
Clouds Clear
Windchill 34 °F
Dew Point 7 °F
Humidity 26%
Rainfall 0.00 in
Snow Depth Not available.
UV 0 out of 12
Pollen 1.00 out of 12
Air Quality Not available.
Flu Activity Not available.
METAR KMWK 272155Z AUTO 32009G19KT 290V030 10SM CLR 05/M18 A2987 RMK AO2 T00461182

More Conditions Fewer Conditions

Pressure 29.87 in
Visibility 10.0 miles
Clouds Clear
Windchill 34 °F
Dew Point 7 °F
Humidity 26%
Rainfall 0.00 in
Snow Depth Not available.
UV 0 out of 12
Pollen 1.00 out of 12
Air Quality Not available.
Flu Activity Not available.
METAR KMWK 272155Z AUTO 32009G19KT 290V030 10SM CLR 05/M18 A2987 RMK AO2 T00461182

More Conditions Fewer Conditions

10-Day Weather Forecast

Almanac

Astronomy

Jan. 27, 2015 Rise Set
Actual Time
Civil Twilight
Nautical Twilight
Astronomical Twilight
Moon
Length of Visible Light
Length of Day
Tomorrow will be .
, % of the Moon is Illuminated

Today's Extremes

State Highs State Lows

Community

WunderPhotos

Upload Photos

1,790,921 photos uploaded!

WunderBlogs® & News

Nearby

Air Quality

  Air Quality AQ Index Pollutant
Not available.

Snow Depth

Station Depth Elevation

Earthquake Activity

City Distance Mag. Time & Date
Minimum magnitude displayed is 2.5.

Coastal Water Temperatures

Place Temperature

Nearby Weather Stations